sensor_id;sensor_type;location;lat;lon;timestamp;temperature;humidity
73777;DHT22;62088;50.240;2.696;2023-02-28T00:01:24;0.90;70.30
73777;DHT22;62088;50.240;2.696;2023-02-28T00:03:51;0.80;70.40
73777;DHT22;62088;50.240;2.696;2023-02-28T00:06:19;0.90;70.40
73777;DHT22;62088;50.240;2.696;2023-02-28T00:08:46;0.80;70.40
73777;DHT22;62088;50.240;2.696;2023-02-28T00:11:15;0.80;70.40
73777;DHT22;62088;50.240;2.696;2023-02-28T00:13:44;0.80;70.40
73777;DHT22;62088;50.240;2.696;2023-02-28T00:16:21;0.70;70.50
73777;DHT22;62088;50.240;2.696;2023-02-28T00:18:49;0.70;70.50
73777;DHT22;62088;50.240;2.696;2023-02-28T00:21:17;0.70;70.60
73777;DHT22;62088;50.240;2.696;2023-02-28T00:23:44;0.70;70.60
73777;DHT22;62088;50.240;2.696;2023-02-28T00:26:11;0.60;70.70
73777;DHT22;62088;50.240;2.696;2023-02-28T00:28:42;0.60;70.70
73777;DHT22;62088;50.240;2.696;2023-02-28T00:31:09;0.60;70.80
73777;DHT22;62088;50.240;2.696;2023-02-28T00:33:36;0.60;70.80
73777;DHT22;62088;50.240;2.696;2023-02-28T00:36:05;0.50;70.90
73777;DHT22;62088;50.240;2.696;2023-02-28T00:38:35;0.50;71.00
73777;DHT22;62088;50.240;2.696;2023-02-28T00:41:02;0.50;71.10
73777;DHT22;62088;50.240;2.696;2023-02-28T00:43:36;0.50;71.20
73777;DHT22;62088;50.240;2.696;2023-02-28T00:46:04;0.50;71.20
73777;DHT22;62088;50.240;2.696;2023-02-28T00:48:32;0.40;71.30
73777;DHT22;62088;50.240;2.696;2023-02-28T00:50:59;0.40;71.30
73777;DHT22;62088;50.240;2.696;2023-02-28T00:53:26;0.40;71.40
73777;DHT22;62088;50.240;2.696;2023-02-28T00:55:56;0.40;71.40
73777;DHT22;62088;50.240;2.696;2023-02-28T00:58:25;0.40;71.40
73777;DHT22;62088;50.240;2.696;2023-02-28T01:00:52;0.40;71.40
73777;DHT22;62088;50.240;2.696;2023-02-28T01:03:21;0.40;71.50
73777;DHT22;62088;50.240;2.696;2023-02-28T01:05:49;0.30;71.40
73777;DHT22;62088;50.240;2.696;2023-02-28T01:08:16;0.30;71.40
73777;DHT22;62088;50.240;2.696;2023-02-28T01:10:43;0.30;71.40
73777;DHT22;62088;50.240;2.696;2023-02-28T01:13:12;0.30;71.50
73777;DHT22;62088;50.240;2.696;2023-02-28T01:15:43;0.20;71.50
73777;DHT22;62088;50.240;2.696;2023-02-28T01:18:12;0.20;71.60
73777;DHT22;62088;50.240;2.696;2023-02-28T01:20:39;0.20;71.60
73777;DHT22;62088;50.240;2.696;2023-02-28T01:23:06;0.20;71.70
73777;DHT22;62088;50.240;2.696;2023-02-28T01:25:37;0.20;71.70
73777;DHT22;62088;50.240;2.696;2023-02-28T01:28:05;0.20;71.70
73777;DHT22;62088;50.240;2.696;2023-02-28T01:30:33;0.20;71.80
73777;DHT22;62088;50.240;2.696;2023-02-28T01:33:00;0.10;71.80
73777;DHT22;62088;50.240;2.696;2023-02-28T01:35:27;0.20;71.90
73777;DHT22;62088;50.240;2.696;2023-02-28T01:37:55;0.10;71.90
73777;DHT22;62088;50.240;2.696;2023-02-28T01:40:26;0.10;72.00
73777;DHT22;62088;50.240;2.696;2023-02-28T01:42:54;0.10;72.10
73777;DHT22;62088;50.240;2.696;2023-02-28T01:45:22;0.10;72.10
73777;DHT22;62088;50.240;2.696;2023-02-28T01:47:52;0.10;72.10
73777;DHT22;62088;50.240;2.696;2023-02-28T01:50:24;0.00;72.10
73777;DHT22;62088;50.240;2.696;2023-02-28T01:52:55;0.00;72.10
73777;DHT22;62088;50.240;2.696;2023-02-28T01:55:24;0.00;72.10
73777;DHT22;62088;50.240;2.696;2023-02-28T01:58:00;0.00;72.10
73777;DHT22;62088;50.240;2.696;2023-02-28T02:00:30;0.00;72.20
73777;DHT22;62088;50.240;2.696;2023-02-28T02:02:59;0.00;72.30
73777;DHT22;62088;50.240;2.696;2023-02-28T02:05:30;0.00;72.30
73777;DHT22;62088;50.240;2.696;2023-02-28T02:08:10;0.00;72.40
73777;DHT22;62088;50.240;2.696;2023-02-28T02:10:45;0.00;72.50
73777;DHT22;62088;50.240;2.696;2023-02-28T02:13:37;0.00;72.60
73777;DHT22;62088;50.240;2.696;2023-02-28T02:25:28;0.00;72.90
73777;DHT22;62088;50.240;2.696;2023-02-28T02:41:44;-3276.60;73.00
73777;DHT22;62088;50.240;2.696;2023-02-28T02:44:26;-3276.60;73.10
73777;DHT22;62088;50.240;2.696;2023-02-28T02:47:01;-3276.60;73.20
73777;DHT22;62088;50.240;2.696;2023-02-28T02:49:34;-3276.60;73.30
73777;DHT22;62088;50.240;2.696;2023-02-28T02:52:06;-3276.60;73.30
73777;DHT22;62088;50.240;2.696;2023-02-28T02:54:37;-3276.50;73.30
73777;DHT22;62088;50.240;2.696;2023-02-28T02:57:08;-3276.60;73.30
73777;DHT22;62088;50.240;2.696;2023-02-28T02:59:39;-3276.60;73.40
73777;DHT22;62088;50.240;2.696;2023-02-28T03:02:08;-3276.60;73.40
73777;DHT22;62088;50.240;2.696;2023-02-28T03:04:51;-3276.60;73.50
73777;DHT22;62088;50.240;2.696;2023-02-28T03:07:20;-3276.60;73.50
73777;DHT22;62088;50.240;2.696;2023-02-28T03:09:55;-3276.50;73.50
73777;DHT22;62088;50.240;2.696;2023-02-28T03:12:32;-3276.50;73.60
73777;DHT22;62088;50.240;2.696;2023-02-28T03:15:24;-3276.50;73.60
73777;DHT22;62088;50.240;2.696;2023-02-28T03:18:04;-3276.50;73.60
73777;DHT22;62088;50.240;2.696;2023-02-28T03:20:53;-3276.50;73.70
73777;DHT22;62088;50.240;2.696;2023-02-28T03:26:26;-3276.50;73.70
73777;DHT22;62088;50.240;2.696;2023-02-28T03:29:08;-3276.50;73.70
73777;DHT22;62088;50.240;2.696;2023-02-28T03:31:43;-3276.40;73.80
73777;DHT22;62088;50.240;2.696;2023-02-28T03:36:51;-3276.50;73.90
73777;DHT22;62088;50.240;2.696;2023-02-28T03:39:25;-3276.40;73.90
73777;DHT22;62088;50.240;2.696;2023-02-28T03:44:38;-3276.40;74.00
73777;DHT22;62088;50.240;2.696;2023-02-28T03:47:28;-3276.50;74.00
73777;DHT22;62088;50.240;2.696;2023-02-28T03:52:40;-3276.40;74.00
73777;DHT22;62088;50.240;2.696;2023-02-28T03:55:13;-3276.40;74.00
73777;DHT22;62088;50.240;2.696;2023-02-28T03:57:56;-3276.40;74.00
73777;DHT22;62088;50.240;2.696;2023-02-28T04:00:34;-3276.40;74.00
73777;DHT22;62088;50.240;2.696;2023-02-28T04:03:03;-3276.40;74.00
73777;DHT22;62088;50.240;2.696;2023-02-28T04:05:31;-3276.40;74.00
73777;DHT22;62088;50.240;2.696;2023-02-28T04:08:07;-3276.40;74.00
73777;DHT22;62088;50.240;2.696;2023-02-28T04:10:34;-3276.40;74.00
73777;DHT22;62088;50.240;2.696;2023-02-28T04:13:01;-3276.30;74.10
73777;DHT22;62088;50.240;2.696;2023-02-28T04:15:28;-3276.30;74.10
73777;DHT22;62088;50.240;2.696;2023-02-28T04:17:55;-3276.30;74.10
73777;DHT22;62088;50.240;2.696;2023-02-28T04:20:22;-3276.30;74.10
73777;DHT22;62088;50.240;2.696;2023-02-28T04:22:49;-3276.30;74.20
73777;DHT22;62088;50.240;2.696;2023-02-28T04:25:16;-3276.30;74.20
73777;DHT22;62088;50.240;2.696;2023-02-28T04:27:43;-3276.30;74.20
73777;DHT22;62088;50.240;2.696;2023-02-28T04:30:11;-3276.30;74.20
73777;DHT22;62088;50.240;2.696;2023-02-28T04:32:38;-3276.20;74.20
73777;DHT22;62088;50.240;2.696;2023-02-28T04:35:06;-3276.20;74.20
73777;DHT22;62088;50.240;2.696;2023-02-28T04:37:33;-3276.20;74.30
73777;DHT22;62088;50.240;2.696;2023-02-28T04:40:04;-3276.20;74.30
73777;DHT22;62088;50.240;2.696;2023-02-28T04:42:31;-3276.30;74.30
73777;DHT22;62088;50.240;2.696;2023-02-28T04:45:03;-3276.20;74.30
73777;DHT22;62088;50.240;2.696;2023-02-28T04:47:30;-3276.20;74.40
73777;DHT22;62088;50.240;2.696;2023-02-28T04:49:57;-3276.20;74.40
73777;DHT22;62088;50.240;2.696;2023-02-28T04:52:24;-3276.20;74.40
73777;DHT22;62088;50.240;2.696;2023-02-28T04:54:51;-3276.10;74.50
73777;DHT22;62088;50.240;2.696;2023-02-28T04:57:18;-3276.20;74.50
73777;DHT22;62088;50.240;2.696;2023-02-28T04:59:45;-3276.10;74.50
73777;DHT22;62088;50.240;2.696;2023-02-28T05:02:12;-3276.10;74.40
73777;DHT22;62088;50.240;2.696;2023-02-28T05:04:39;-3276.10;74.50
73777;DHT22;62088;50.240;2.696;2023-02-28T05:07:07;-3276.10;74.40
73777;DHT22;62088;50.240;2.696;2023-02-28T05:09:34;-3276.10;74.50
73777;DHT22;62088;50.240;2.696;2023-02-28T05:12:01;-3276.10;74.50
73777;DHT22;62088;50.240;2.696;2023-02-28T05:14:28;-3276.10;74.50
73777;DHT22;62088;50.240;2.696;2023-02-28T05:16:55;-3276.10;74.50
73777;DHT22;62088;50.240;2.696;2023-02-28T05:19:22;-3276.10;74.50
73777;DHT22;62088;50.240;2.696;2023-02-28T05:21:52;-3276.00;74.50
73777;DHT22;62088;50.240;2.696;2023-02-28T05:24:20;-3276.10;74.60
73777;DHT22;62088;50.240;2.696;2023-02-28T05:26:51;-3276.00;74.60
73777;DHT22;62088;50.240;2.696;2023-02-28T05:29:19;-3276.00;74.60
73777;DHT22;62088;50.240;2.696;2023-02-28T05:31:46;-3276.00;74.60
73777;DHT22;62088;50.240;2.696;2023-02-28T05:34:14;-3276.00;74.60
73777;DHT22;62088;50.240;2.696;2023-02-28T05:36:42;-3276.00;74.70
73777;DHT22;62088;50.240;2.696;2023-02-28T05:39:10;-3276.00;74.70
73777;DHT22;62088;50.240;2.696;2023-02-28T05:41:41;-3276.00;74.80
73777;DHT22;62088;50.240;2.696;2023-02-28T05:44:09;-3275.90;74.80
73777;DHT22;62088;50.240;2.696;2023-02-28T05:46:36;-3275.90;74.90
73777;DHT22;62088;50.240;2.696;2023-02-28T05:49:03;-3275.90;74.90
73777;DHT22;62088;50.240;2.696;2023-02-28T05:51:30;-3275.90;75.00
73777;DHT22;62088;50.240;2.696;2023-02-28T05:53:59;-3275.90;75.00
73777;DHT22;62088;50.240;2.696;2023-02-28T05:56:27;-3275.90;75.00
73777;DHT22;62088;50.240;2.696;2023-02-28T05:58:54;-3275.90;75.00
73777;DHT22;62088;50.240;2.696;2023-02-28T06:01:34;-3275.90;75.10
73777;DHT22;62088;50.240;2.696;2023-02-28T06:04:04;-3275.90;75.10
73777;DHT22;62088;50.240;2.696;2023-02-28T06:06:31;-3275.90;75.10
73777;DHT22;62088;50.240;2.696;2023-02-28T06:09:06;-3275.90;75.10
73777;DHT22;62088;50.240;2.696;2023-02-28T06:11:33;-3275.90;75.20
73777;DHT22;62088;50.240;2.696;2023-02-28T06:14:00;-3275.80;75.20
73777;DHT22;62088;50.240;2.696;2023-02-28T06:16:29;-3275.80;75.20
73777;DHT22;62088;50.240;2.696;2023-02-28T06:19:02;-3275.90;75.20
73777;DHT22;62088;50.240;2.696;2023-02-28T06:21:30;-3275.90;75.30
73777;DHT22;62088;50.240;2.696;2023-02-28T06:23:57;-3275.90;75.40
73777;DHT22;62088;50.240;2.696;2023-02-28T06:26:25;-3275.80;75.40
73777;DHT22;62088;50.240;2.696;2023-02-28T06:28:53;-3275.90;75.50
73777;DHT22;62088;50.240;2.696;2023-02-28T06:31:20;-3275.90;75.60
73777;DHT22;62088;50.240;2.696;2023-02-28T06:33:48;-3275.90;75.70
73777;DHT22;62088;50.240;2.696;2023-02-28T06:36:16;-3275.90;75.80
73777;DHT22;62088;50.240;2.696;2023-02-28T06:38:44;-3275.90;75.90
73777;DHT22;62088;50.240;2.696;2023-02-28T06:41:11;-3276.00;76.10
73777;DHT22;62088;50.240;2.696;2023-02-28T06:43:41;-3276.00;76.20
73777;DHT22;62088;50.240;2.696;2023-02-28T06:46:11;-3276.00;76.30
73777;DHT22;62088;50.240;2.696;2023-02-28T06:48:39;-3276.00;76.30
73777;DHT22;62088;50.240;2.696;2023-02-28T06:51:11;-3276.10;76.40
73777;DHT22;62088;50.240;2.696;2023-02-28T06:53:41;-3276.10;76.60
73777;DHT22;62088;50.240;2.696;2023-02-28T06:56:10;-3276.10;76.60
73777;DHT22;62088;50.240;2.696;2023-02-28T06:58:38;-3276.10;76.70
73777;DHT22;62088;50.240;2.696;2023-02-28T07:01:06;-3276.10;76.80
73777;DHT22;62088;50.240;2.696;2023-02-28T07:03:35;-3276.20;76.80
73777;DHT22;62088;50.240;2.696;2023-02-28T07:06:02;-3276.20;76.90
73777;DHT22;62088;50.240;2.696;2023-02-28T07:08:31;-3276.20;77.00
73777;DHT22;62088;50.240;2.696;2023-02-28T07:10:59;-3276.20;77.10
73777;DHT22;62088;50.240;2.696;2023-02-28T07:13:26;-3276.30;77.30
73777;DHT22;62088;50.240;2.696;2023-02-28T07:15:59;-3276.30;77.40
73777;DHT22;62088;50.240;2.696;2023-02-28T07:18:27;-3276.30;77.60
73777;DHT22;62088;50.240;2.696;2023-02-28T07:20:54;-3276.40;77.80
73777;DHT22;62088;50.240;2.696;2023-02-28T07:23:22;-3276.40;77.90
73777;DHT22;62088;50.240;2.696;2023-02-28T07:25:50;-3276.40;78.00
73777;DHT22;62088;50.240;2.696;2023-02-28T07:28:17;-3276.50;78.10
73777;DHT22;62088;50.240;2.696;2023-02-28T07:30:44;-3276.50;78.20
73777;DHT22;62088;50.240;2.696;2023-02-28T07:33:11;-3276.60;78.20
73777;DHT22;62088;50.240;2.696;2023-02-28T07:35:38;-3276.60;78.30
73777;DHT22;62088;50.240;2.696;2023-02-28T07:38:05;-3276.60;78.30
73777;DHT22;62088;50.240;2.696;2023-02-28T07:40:35;-3276.70;78.30
73777;DHT22;62088;50.240;2.696;2023-02-28T07:43:03;0.00;78.40
73777;DHT22;62088;50.240;2.696;2023-02-28T07:45:31;0.00;78.40
73777;DHT22;62088;50.240;2.696;2023-02-28T07:48:01;0.00;78.50
73777;DHT22;62088;50.240;2.696;2023-02-28T07:50:29;0.00;78.50
73777;DHT22;62088;50.240;2.696;2023-02-28T07:52:58;0.00;78.50
73777;DHT22;62088;50.240;2.696;2023-02-28T07:55:25;0.00;78.60
73777;DHT22;62088;50.240;2.696;2023-02-28T07:57:54;0.00;78.60
73777;DHT22;62088;50.240;2.696;2023-02-28T08:00:21;0.10;78.60
73777;DHT22;62088;50.240;2.696;2023-02-28T08:02:48;0.10;78.60
73777;DHT22;62088;50.240;2.696;2023-02-28T08:05:16;0.20;78.60
73777;DHT22;62088;50.240;2.696;2023-02-28T08:07:45;0.30;78.70
73777;DHT22;62088;50.240;2.696;2023-02-28T08:10:14;0.30;78.70
73777;DHT22;62088;50.240;2.696;2023-02-28T08:12:41;0.30;78.70
73777;DHT22;62088;50.240;2.696;2023-02-28T08:15:08;0.30;78.70
73777;DHT22;62088;50.240;2.696;2023-02-28T08:17:35;0.40;78.70
73777;DHT22;62088;50.240;2.696;2023-02-28T08:20:03;0.40;78.80
73777;DHT22;62088;50.240;2.696;2023-02-28T08:22:30;0.40;78.70
73777;DHT22;62088;50.240;2.696;2023-02-28T08:24:57;0.50;78.70
73777;DHT22;62088;50.240;2.696;2023-02-28T08:27:24;0.50;78.70
73777;DHT22;62088;50.240;2.696;2023-02-28T08:29:51;0.60;78.70
73777;DHT22;62088;50.240;2.696;2023-02-28T08:32:18;0.60;78.70
73777;DHT22;62088;50.240;2.696;2023-02-28T08:34:55;0.70;78.80
73777;DHT22;62088;50.240;2.696;2023-02-28T08:37:23;0.70;78.80
73777;DHT22;62088;50.240;2.696;2023-02-28T08:39:50;0.70;78.80
73777;DHT22;62088;50.240;2.696;2023-02-28T08:42:21;0.80;78.70
73777;DHT22;62088;50.240;2.696;2023-02-28T08:44:48;0.90;78.70
73777;DHT22;62088;50.240;2.696;2023-02-28T08:47:16;0.80;78.70
73777;DHT22;62088;50.240;2.696;2023-02-28T08:49:43;0.90;78.60
73777;DHT22;62088;50.240;2.696;2023-02-28T08:52:10;0.90;77.70
73777;DHT22;62088;50.240;2.696;2023-02-28T08:54:37;1.00;77.40
73777;DHT22;62088;50.240;2.696;2023-02-28T08:57:04;1.00;77.30
73777;DHT22;62088;50.240;2.696;2023-02-28T08:59:32;1.10;77.20
73777;DHT22;62088;50.240;2.696;2023-02-28T09:01:59;1.00;77.00
73777;DHT22;62088;50.240;2.696;2023-02-28T09:04:26;1.10;76.90
73777;DHT22;62088;50.240;2.696;2023-02-28T09:06:53;1.20;76.80
73777;DHT22;62088;50.240;2.696;2023-02-28T09:09:20;1.20;76.80
73777;DHT22;62088;50.240;2.696;2023-02-28T09:11:47;1.20;76.80
73777;DHT22;62088;50.240;2.696;2023-02-28T09:14:14;1.30;76.80
73777;DHT22;62088;50.240;2.696;2023-02-28T09:16:41;1.30;76.80
73777;DHT22;62088;50.240;2.696;2023-02-28T09:19:11;1.30;76.70
73777;DHT22;62088;50.240;2.696;2023-02-28T09:21:38;1.40;76.70
73777;DHT22;62088;50.240;2.696;2023-02-28T09:24:06;1.40;76.90
73777;DHT22;62088;50.240;2.696;2023-02-28T09:26:33;1.40;76.90
73777;DHT22;62088;50.240;2.696;2023-02-28T09:29:13;1.40;76.60
73777;DHT22;62088;50.240;2.696;2023-02-28T09:31:43;1.50;76.10
73777;DHT22;62088;50.240;2.696;2023-02-28T09:34:10;1.60;76.00
73777;DHT22;62088;50.240;2.696;2023-02-28T09:36:38;1.60;76.00
73777;DHT22;62088;50.240;2.696;2023-02-28T09:39:12;1.70;75.10
73777;DHT22;62088;50.240;2.696;2023-02-28T09:41:43;1.80;74.60
73777;DHT22;62088;50.240;2.696;2023-02-28T09:44:29;1.80;73.70
73777;DHT22;62088;50.240;2.696;2023-02-28T09:47:18;1.90;73.50
73777;DHT22;62088;50.240;2.696;2023-02-28T09:49:48;1.90;73.70
73777;DHT22;62088;50.240;2.696;2023-02-28T09:52:19;1.90;74.20
73777;DHT22;62088;50.240;2.696;2023-02-28T09:54:47;2.00;74.10
73777;DHT22;62088;50.240;2.696;2023-02-28T09:59:54;2.20;73.90
73777;DHT22;62088;50.240;2.696;2023-02-28T10:05:27;2.40;72.70
73777;DHT22;62088;50.240;2.696;2023-02-28T10:08:16;2.40;72.50
73777;DHT22;62088;50.240;2.696;2023-02-28T10:10:48;2.50;72.20
73777;DHT22;62088;50.240;2.696;2023-02-28T10:13:42;2.50;71.10
73777;DHT22;62088;50.240;2.696;2023-02-28T10:16:35;2.60;70.10
73777;DHT22;62088;50.240;2.696;2023-02-28T10:19:11;2.60;69.70
73777;DHT22;62088;50.240;2.696;2023-02-28T10:21:43;2.70;70.00
73777;DHT22;62088;50.240;2.696;2023-02-28T10:24:28;2.70;69.40
73777;DHT22;62088;50.240;2.696;2023-02-28T10:27:00;2.80;68.40
73777;DHT22;62088;50.240;2.696;2023-02-28T10:29:29;2.80;68.30
73777;DHT22;62088;50.240;2.696;2023-02-28T10:32:01;2.90;67.80
73777;DHT22;62088;50.240;2.696;2023-02-28T10:34:29;2.90;68.20
73777;DHT22;62088;50.240;2.696;2023-02-28T10:36:58;2.90;68.30
73777;DHT22;62088;50.240;2.696;2023-02-28T10:39:43;3.00;68.80
73777;DHT22;62088;50.240;2.696;2023-02-28T10:42:25;3.00;68.70
73777;DHT22;62088;50.240;2.696;2023-02-28T10:45:10;3.10;66.70
73777;DHT22;62088;50.240;2.696;2023-02-28T10:47:49;3.20;66.40
73777;DHT22;62088;50.240;2.696;2023-02-28T10:52:54;3.30;65.60
73777;DHT22;62088;50.240;2.696;2023-02-28T10:55:24;3.30;65.50
73777;DHT22;62088;50.240;2.696;2023-02-28T10:57:52;3.40;65.60
73777;DHT22;62088;50.240;2.696;2023-02-28T11:00:25;3.40;63.40
73777;DHT22;62088;50.240;2.696;2023-02-28T11:02:58;3.50;63.40
73777;DHT22;62088;50.240;2.696;2023-02-28T11:05:35;3.50;63.30
73777;DHT22;62088;50.240;2.696;2023-02-28T11:08:21;3.60;62.50
73777;DHT22;62088;50.240;2.696;2023-02-28T11:10:57;3.70;62.50
73777;DHT22;62088;50.240;2.696;2023-02-28T11:13:32;3.70;62.30
73777;DHT22;62088;50.240;2.696;2023-02-28T11:16:04;3.70;60.10
73777;DHT22;62088;50.240;2.696;2023-02-28T11:18:42;3.70;59.40
73777;DHT22;62088;50.240;2.696;2023-02-28T11:21:19;3.70;59.40
73777;DHT22;62088;50.240;2.696;2023-02-28T11:23:49;3.70;59.60
73777;DHT22;62088;50.240;2.696;2023-02-28T11:26:41;3.80;59.80
73777;DHT22;62088;50.240;2.696;2023-02-28T11:29:12;3.80;60.30
73777;DHT22;62088;50.240;2.696;2023-02-28T11:31:43;3.90;59.20
73777;DHT22;62088;50.240;2.696;2023-02-28T11:34:24;3.90;59.20
73777;DHT22;62088;50.240;2.696;2023-02-28T11:36:54;3.90;59.90
73777;DHT22;62088;50.240;2.696;2023-02-28T11:39:21;3.90;60.40
73777;DHT22;62088;50.240;2.696;2023-02-28T11:55:35;4.20;58.40
73777;DHT22;62088;50.240;2.696;2023-02-28T12:03:45;4.50;60.10
73777;DHT22;62088;50.240;2.696;2023-02-28T12:12:02;4.90;58.50
73777;DHT22;62088;50.240;2.696;2023-02-28T12:17:27;5.10;56.40
73777;DHT22;62088;50.240;2.696;2023-02-28T12:20:17;5.20;56.80
73777;DHT22;62088;50.240;2.696;2023-02-28T12:23:17;5.30;56.30
73777;DHT22;62088;50.240;2.696;2023-02-28T12:28:21;5.40;55.80
73777;DHT22;62088;50.240;2.696;2023-02-28T12:33:43;5.60;54.70
73777;DHT22;62088;50.240;2.696;2023-02-28T12:36:14;5.60;54.80
73777;DHT22;62088;50.240;2.696;2023-02-28T12:38:49;5.70;54.40
73777;DHT22;62088;50.240;2.696;2023-02-28T12:44:04;5.90;56.10
73777;DHT22;62088;50.240;2.696;2023-02-28T12:46:36;5.90;53.70
73777;DHT22;62088;50.240;2.696;2023-02-28T12:49:09;6.00;53.30
73777;DHT22;62088;50.240;2.696;2023-02-28T12:51:39;6.00;53.00
73777;DHT22;62088;50.240;2.696;2023-02-28T12:54:10;6.10;52.90
73777;DHT22;62088;50.240;2.696;2023-02-28T12:59:32;6.20;52.50
73777;DHT22;62088;50.240;2.696;2023-02-28T13:02:02;6.20;53.30
73777;DHT22;62088;50.240;2.696;2023-02-28T13:10:43;6.20;51.30
73777;DHT22;62088;50.240;2.696;2023-02-28T13:13:16;6.20;51.20
73777;DHT22;62088;50.240;2.696;2023-02-28T13:16:08;6.20;51.00
73777;DHT22;62088;50.240;2.696;2023-02-28T13:18:38;6.20;51.50
73777;DHT22;62088;50.240;2.696;2023-02-28T13:21:08;6.20;50.60
73777;DHT22;62088;50.240;2.696;2023-02-28T13:26:08;6.30;50.90
73777;DHT22;62088;50.240;2.696;2023-02-28T13:28:57;6.30;50.90
73777;DHT22;62088;50.240;2.696;2023-02-28T13:31:25;6.40;51.40
73777;DHT22;62088;50.240;2.696;2023-02-28T13:36:26;6.50;51.30
73777;DHT22;62088;50.240;2.696;2023-02-28T13:38:57;6.50;49.60
73777;DHT22;62088;50.240;2.696;2023-02-28T13:44:05;6.50;49.10
73777;DHT22;62088;50.240;2.696;2023-02-28T13:49:46;6.50;47.40
73777;DHT22;62088;50.240;2.696;2023-02-28T13:52:18;6.50;47.00
73777;DHT22;62088;50.240;2.696;2023-02-28T13:54:54;6.50;46.80
73777;DHT22;62088;50.240;2.696;2023-02-28T14:00:31;6.50;45.00
73777;DHT22;62088;50.240;2.696;2023-02-28T14:06:34;6.40;45.80
73777;DHT22;62088;50.240;2.696;2023-02-28T14:11:41;6.40;46.00
73777;DHT22;62088;50.240;2.696;2023-02-28T14:16:57;6.40;45.70
73777;DHT22;62088;50.240;2.696;2023-02-28T14:19:30;6.40;45.50
73777;DHT22;62088;50.240;2.696;2023-02-28T14:22:19;6.40;45.40
73777;DHT22;62088;50.240;2.696;2023-02-28T14:33:19;6.50;45.50
73777;DHT22;62088;50.240;2.696;2023-02-28T14:36:12;6.50;45.20
73777;DHT22;62088;50.240;2.696;2023-02-28T14:38:47;6.50;45.60
73777;DHT22;62088;50.240;2.696;2023-02-28T14:41:31;6.60;44.50
73777;DHT22;62088;50.240;2.696;2023-02-28T14:44:03;6.60;45.10
73777;DHT22;62088;50.240;2.696;2023-02-28T14:46:41;6.60;44.60
73777;DHT22;62088;50.240;2.696;2023-02-28T14:52:17;6.60;43.90
73777;DHT22;62088;50.240;2.696;2023-02-28T14:54:45;6.60;44.00
73777;DHT22;62088;50.240;2.696;2023-02-28T14:57:27;6.50;44.10
73777;DHT22;62088;50.240;2.696;2023-02-28T15:02:34;6.40;44.50
73777;DHT22;62088;50.240;2.696;2023-02-28T15:07:48;6.30;44.50
73777;DHT22;62088;50.240;2.696;2023-02-28T15:10:19;6.20;44.30
73777;DHT22;62088;50.240;2.696;2023-02-28T15:13:00;6.20;44.00
73777;DHT22;62088;50.240;2.696;2023-02-28T15:18:49;6.10;45.30
73777;DHT22;62088;50.240;2.696;2023-02-28T15:21:32;6.00;45.40
73777;DHT22;62088;50.240;2.696;2023-02-28T15:24:12;6.00;45.40
73777;DHT22;62088;50.240;2.696;2023-02-28T15:26:43;5.90;45.80
73777;DHT22;62088;50.240;2.696;2023-02-28T15:29:16;5.90;45.80
73777;DHT22;62088;50.240;2.696;2023-02-28T15:32:16;5.80;45.80
73777;DHT22;62088;50.240;2.696;2023-02-28T15:34:37;5.70;45.90
73777;DHT22;62088;50.240;2.696;2023-02-28T15:40:10;5.50;46.20
73777;DHT22;62088;50.240;2.696;2023-02-28T15:42:39;5.50;46.00
73777;DHT22;62088;50.240;2.696;2023-02-28T15:45:27;5.40;46.40
73777;DHT22;62088;50.240;2.696;2023-02-28T15:47:55;5.30;46.80
73777;DHT22;62088;50.240;2.696;2023-02-28T15:50:28;5.30;47.10
73777;DHT22;62088;50.240;2.696;2023-02-28T15:52:57;5.20;47.10
73777;DHT22;62088;50.240;2.696;2023-02-28T15:55:27;5.10;46.80
73777;DHT22;62088;50.240;2.696;2023-02-28T15:58:00;5.10;47.10
73777;DHT22;62088;50.240;2.696;2023-02-28T16:00:30;5.10;47.00
73777;DHT22;62088;50.240;2.696;2023-02-28T16:02:59;5.00;46.80
73777;DHT22;62088;50.240;2.696;2023-02-28T16:05:30;5.00;46.10
73777;DHT22;62088;50.240;2.696;2023-02-28T16:08:14;4.90;46.30
73777;DHT22;62088;50.240;2.696;2023-02-28T16:10:41;4.90;46.90
73777;DHT22;62088;50.240;2.696;2023-02-28T16:13:10;4.90;46.90
73777;DHT22;62088;50.240;2.696;2023-02-28T16:15:42;4.90;46.70
73777;DHT22;62088;50.240;2.696;2023-02-28T16:18:11;4.90;46.60
73777;DHT22;62088;50.240;2.696;2023-02-28T16:20:38;4.80;47.00
73777;DHT22;62088;50.240;2.696;2023-02-28T16:23:06;4.80;47.60
73777;DHT22;62088;50.240;2.696;2023-02-28T16:25:40;4.70;47.90
73777;DHT22;62088;50.240;2.696;2023-02-28T16:28:29;4.70;47.50
73777;DHT22;62088;50.240;2.696;2023-02-28T16:31:03;4.60;47.80
73777;DHT22;62088;50.240;2.696;2023-02-28T16:33:32;4.60;48.20
73777;DHT22;62088;50.240;2.696;2023-02-28T16:35:59;4.60;48.50
73777;DHT22;62088;50.240;2.696;2023-02-28T16:38:26;4.60;48.70
73777;DHT22;62088;50.240;2.696;2023-02-28T16:40:55;4.60;48.70
73777;DHT22;62088;50.240;2.696;2023-02-28T16:43:26;4.60;48.80
73777;DHT22;62088;50.240;2.696;2023-02-28T16:45:56;4.60;49.00
73777;DHT22;62088;50.240;2.696;2023-02-28T16:48:27;4.60;48.50
73777;DHT22;62088;50.240;2.696;2023-02-28T16:50:54;4.60;48.70
73777;DHT22;62088;50.240;2.696;2023-02-28T16:53:21;4.60;48.70
73777;DHT22;62088;50.240;2.696;2023-02-28T16:55:48;4.60;49.00
73777;DHT22;62088;50.240;2.696;2023-02-28T16:58:17;4.50;49.00
73777;DHT22;62088;50.240;2.696;2023-02-28T17:00:45;4.50;48.00
73777;DHT22;62088;50.240;2.696;2023-02-28T17:03:23;4.50;48.20
73777;DHT22;62088;50.240;2.696;2023-02-28T17:05:59;4.50;48.70
73777;DHT22;62088;50.240;2.696;2023-02-28T17:08:27;4.40;48.80
73777;DHT22;62088;50.240;2.696;2023-02-28T17:10:56;4.40;48.60
73777;DHT22;62088;50.240;2.696;2023-02-28T17:13:23;4.40;48.90
73777;DHT22;62088;50.240;2.696;2023-02-28T17:15:50;4.40;49.10
73777;DHT22;62088;50.240;2.696;2023-02-28T17:18:18;4.30;49.40
73777;DHT22;62088;50.240;2.696;2023-02-28T17:20:48;4.30;49.60
73777;DHT22;62088;50.240;2.696;2023-02-28T17:23:15;4.20;49.90
73777;DHT22;62088;50.240;2.696;2023-02-28T17:25:43;4.20;50.10
73777;DHT22;62088;50.240;2.696;2023-02-28T17:28:22;4.10;50.20
73777;DHT22;62088;50.240;2.696;2023-02-28T17:30:49;4.10;50.30
73777;DHT22;62088;50.240;2.696;2023-02-28T17:33:16;4.00;50.40
73777;DHT22;62088;50.240;2.696;2023-02-28T17:35:43;4.00;50.50
73777;DHT22;62088;50.240;2.696;2023-02-28T17:38:19;4.00;50.70
73777;DHT22;62088;50.240;2.696;2023-02-28T17:40:46;3.90;50.80
73777;DHT22;62088;50.240;2.696;2023-02-28T17:43:13;3.90;51.00
73777;DHT22;62088;50.240;2.696;2023-02-28T17:45:41;3.90;51.10
73777;DHT22;62088;50.240;2.696;2023-02-28T17:48:11;3.80;51.20
73777;DHT22;62088;50.240;2.696;2023-02-28T17:50:39;3.80;51.40
73777;DHT22;62088;50.240;2.696;2023-02-28T17:53:06;3.70;51.50
73777;DHT22;62088;50.240;2.696;2023-02-28T17:55:35;3.70;51.70
73777;DHT22;62088;50.240;2.696;2023-02-28T17:58:03;3.70;51.80
73777;DHT22;62088;50.240;2.696;2023-02-28T18:00:30;3.60;51.90
73777;DHT22;62088;50.240;2.696;2023-02-28T18:03:00;3.50;52.00
73777;DHT22;62088;50.240;2.696;2023-02-28T18:05:27;3.50;52.10